Flight Track Log - Related Links

Times and Time Zones

All times are in EDT time to prevent confusion due to time zone crossing. See the UAL5915 flight status page for this flight to view local times or setup timezone preferences in your user account.

Time Position Orientation Groundspeed Altitude Reporting Facility
EDT Latitude Longitude Course Direction KTS MPH feet Rate Location/Type
Mon 01:36:48 PM 36.1956 -95.8658 88° East 161 185 1,300  Level Kansas City Center
Mon 01:37:16 PM 36.1967 -95.8322 88° East 169 194 2,500 2,132 Climbing Kansas City Center
Mon 01:38:04 PM 36.1894 -95.7783 99° East 198 228 4,000 1,982 Climbing Kansas City Center
Mon 01:39:08 PM 36.1697 -95.6881 105° East 255 293 6,200 2,220 Climbing Kansas City Center
Mon 01:40:11 PM 36.1478 -95.5844 105° East 303 349 8,700 2,195 Climbing Kansas City Center
Mon 01:41:11 PM 36.1239 -95.4778 105° East 316 364 10,700 1,645 Climbing Kansas City Center
Mon 01:42:15 PM 36.0914 -95.3239 105° East 369 425 12,100 1,584 Climbing Kansas City Center
Mon 01:43:16 PM 36.0636 -95.1892 104° East 399 459 14,000 1,820 Climbing Kansas City Center
Mon 01:44:17 PM 36.0333 -95.0519 105° East 414 476 15,800 1,744 Climbing Kansas City Center
Mon 01:44:42 PM 36.0242 -95.0022 103° East 403 464 16,500 1,553 Climbing Memphis Center
Mon 01:45:42 PM 36.0253 -94.8561 89° East 408 470 18,000 1,550 Climbing Memphis Center
Mon 01:46:42 PM 36.0306 -94.7075 87° East 419 482 19,600 1,550 Climbing Memphis Center
Mon 01:47:42 PM 36.0378 -94.5589 87° East 430 495 21,100 1,500 Climbing Memphis Center
Mon 01:48:42 PM 36.0431 -94.4053 88° East 435 501 22,600 1,350 Climbing Memphis Center
Mon 01:49:42 PM 36.0478 -94.2514 88° East 435 501 23,800 1,150 Climbing Memphis Center
Mon 01:50:42 PM 36.0506 -94.0975 89° East 440 506 24,900 1,000 Climbing Memphis Center
Mon 01:51:42 PM 36.0553 -93.9333 88° East 450 518 25,800 950 Climbing Memphis Center
Mon 01:52:42 PM 36.0597 -93.7719 88° East 461 531 26,800 1,000 Climbing Memphis Center
Mon 01:53:42 PM 36.0661 -93.6103 87° East 461 531 27,800 1,000 Climbing Memphis Center
Mon 01:54:42 PM 36.0683 -93.4461 89° East 461 531 28,800 1,050 Climbing Memphis Center
Mon 01:55:42 PM 36.0722 -93.2844 88° East 461 531 29,900 1,050 Climbing Memphis Center
Mon 01:56:42 PM 36.0781 -93.1178 87° East 474 545 30,900 1,000 Climbing Memphis Center
Mon 01:57:42 PM 36.0817 -92.9533 88° East 485 558 31,900 1,000 Climbing Memphis Center
Mon 01:58:42 PM 36.0872 -92.7842 88° East 480 552 32,900 1,000 Climbing Memphis Center
Mon 01:59:42 PM 36.0903 -92.6172 89° East 480 552 33,900 1,000 Climbing Memphis Center
Mon 02:00:42 PM 36.0931 -92.4503 89° East 480 552 34,900 1,000 Climbing Memphis Center
Mon 02:01:42 PM 36.0958 -92.2861 89° East 474 545 35,900 1,000 Climbing Memphis Center
Mon 02:02:42 PM 36.1025 -92.1244 87° East 474 545 36,900 550 Climbing Memphis Center
Mon 02:03:42 PM 36.1361 -91.9503 77° East 474 545 37,000 50 Climbing Memphis Center
Mon 02:04:42 PM 36.1756 -91.7867 73° East 479 551 37,000  Level Memphis Center
Mon 02:05:42 PM 36.2211 -91.6228 71° East 491 565 37,000  Level Memphis Center
Mon 02:06:42 PM 36.2664 -91.4561 71° East 497 572 37,000  Level Memphis Center
Mon 02:07:42 PM 36.3075 -91.2892 73° East 497 572 37,000  Level Memphis Center
Mon 02:08:42 PM 36.3522 -91.1275 71° East 497 572 37,000  Level Memphis Center
Mon 02:09:42 PM 36.3928 -90.9653 73° East 492 566 37,000  Level Memphis Center
Mon 02:10:42 PM 36.4372 -90.8033 71° East 492 566 37,000  Level Memphis Center
Mon 02:11:42 PM 36.4794 -90.6408 72° East 492 566 37,000  Level Memphis Center
Mon 02:12:42 PM 36.5214 -90.4783 72° East 492 566 37,000  Level Memphis Center
Mon 02:13:42 PM 36.5567 -90.3311 73° East 492 566 37,000  Level Memphis Center
Mon 02:14:42 PM 36.5983 -90.1683 72° East 492 566 37,000  Level Memphis Center
Mon 02:15:42 PM 36.6397 -90.0028 73° East 497 572 37,000  Level Memphis Center
Mon 02:16:42 PM 36.6808 -89.8394 73° East 497 572 37,000  Level Memphis Center
Mon 02:17:42 PM 36.7217 -89.6736 73° East 497 572 37,000  Level Memphis Center
Mon 02:18:42 PM 36.7622 -89.5050 73° East 497 572 37,000  Level Memphis Center
Mon 02:19:42 PM 36.8047 -89.3386 72° East 497 572 37,000  Level Memphis Center
Mon 02:20:42 PM 36.8450 -89.1694 73° East 497 572 37,000  Level Memphis Center
Mon 02:21:42 PM 36.8850 -89.0031 73° East 497 572 37,000  Level Memphis Center
Mon 02:22:42 PM 36.9247 -88.8361 73° East 497 572 37,000  Level Memphis Center
Mon 02:23:42 PM 36.9642 -88.6667 74° East 497 572 37,000  Level Memphis Center
Mon 02:24:42 PM 37.0053 -88.4969 73° East 497 572 37,000  Level Memphis Center
Mon 02:25:42 PM 37.0464 -88.3139 74° East 497 572 37,000  Level Memphis Center
Mon 02:26:42 PM 37.0872 -88.1439 73° East 497 572 37,000  Level Memphis Center
Mon 02:27:42 PM 37.1197 -87.9894 75° East 497 572 37,000  Level Memphis Center
Mon 02:28:42 PM 37.1581 -87.8219 74° East 497 572 37,000  Level Memphis Center
Mon 02:31:09 PM 37.2508 -87.3983 74° East 501 577 37,000  Level Indianapolis Center
Mon 02:32:11 PM 37.2878 -87.2300 75° East 497 572 37,000  Level Indianapolis Center
Mon 02:33:12 PM 37.3253 -87.0581 75° East 501 577 37,000  Level Indianapolis Center
Mon 02:34:14 PM 37.3631 -86.8883 74° East 501 577 37,000  Level Indianapolis Center
Mon 02:35:16 PM 37.4000 -86.7158 75° East 503 579 37,000  Level Indianapolis Center
Mon 02:36:18 PM 37.4369 -86.5442 75° East 502 578 37,000  Level Indianapolis Center
Mon 02:37:19 PM 37.4739 -86.3731 75° East 502 578 37,000  Level Indianapolis Center
Mon 02:38:21 PM 37.5097 -86.2014 75° East 503 579 37,000  Level Indianapolis Center
Mon 02:39:23 PM 37.5456 -86.0292 75° East 503 579 37,000  Level Indianapolis Center
Mon 02:40:24 PM 37.5817 -85.8544 75° East 500 575 37,000  Level Indianapolis Center
Mon 02:41:26 PM 37.6192 -85.6847 74° East 503 579 37,000  Level Indianapolis Center
Mon 02:42:28 PM 37.6564 -85.4942 76° East 505 581 37,000  Level Indianapolis Center
Mon 02:43:30 PM 37.6903 -85.3228 76° East 503 579 37,000  Level Indianapolis Center
Mon 02:44:31 PM 37.7253 -85.1494 76° East 507 583 37,000  Level Indianapolis Center
Mon 02:45:33 PM 37.7650 -84.9483 76° East 506 582 37,000  Level Indianapolis Center
Mon 02:46:35 PM 37.7994 -84.7761 76° East 506 582 37,000  Level Indianapolis Center
Mon 02:47:36 PM 37.8339 -84.6008 76° East 513 590 37,000  Level Indianapolis Center
Mon 02:48:38 PM 37.8819 -84.4389 69° East 501 577 37,000  Level Indianapolis Center
Mon 02:49:40 PM 37.9644 -84.2964 54° Northeast 496 571 37,000  Level Indianapolis Center
Mon 02:50:42 PM 38.0486 -84.1553 53° Northeast 497 572 37,000  Level Indianapolis Center
Mon 02:51:43 PM 38.1317 -84.0114 54° Northeast 502 578 37,000  Level Indianapolis Center
Mon 02:52:45 PM 38.2306 -83.8447 53° Northeast 502 578 37,000  Level Indianapolis Center
Mon 02:53:47 PM 38.3119 -83.7050 53° Northeast 494 568 37,000  Level Indianapolis Center
Mon 02:54:49 PM 38.3942 -83.5656 53° Northeast 490 564 37,000  Level Indianapolis Center
Mon 02:55:50 PM 38.4475 -83.4039 67° East 499 574 37,000  Level Indianapolis Center
Mon 02:56:52 PM 38.4250 -83.2314 99° East 492 566 37,000  Level Indianapolis Center
Mon 02:57:54 PM 38.3658 -83.0739 116° Southeast 492 566 37,000  Level Indianapolis Center
Mon 02:58:56 PM 38.3419 -82.9017 100° East 497 572 37,000  Level Indianapolis Center
Mon 02:59:58 PM 38.3403 -82.6942 91° East 501 577 37,000  Level Indianapolis Center
Mon 03:00:59 PM 38.3386 -82.5156 91° East 502 578 37,000  Level Indianapolis Center
Mon 03:02:01 PM 38.3375 -82.3519 90° East 501 577 37,000  Level Indianapolis Center
Mon 03:03:03 PM 38.3350 -82.1750 91° East 502 578 37,000  Level Indianapolis Center
Mon 03:04:05 PM 38.3344 -81.9994 90° East 499 574 37,000  Level Indianapolis Center
Mon 03:05:07 PM 38.3314 -81.7869 91° East 503 579 37,000  Level Indianapolis Center
Mon 03:06:09 PM 38.3275 -81.6100 92° East 505 581 37,000  Level Indianapolis Center
Mon 03:07:11 PM 38.3247 -81.4336 91° East 502 578 37,000 -244 Level Indianapolis Center
Mon 03:08:12 PM 38.3214 -81.2572 91° East 504 580 36,500 -683 Descending Indianapolis Center
Mon 03:09:14 PM 38.3167 -81.0792 92° East 506 582 35,600 -1,016 Descending Indianapolis Center
Mon 03:10:16 PM 38.3128 -80.8642 91° East 509 586 34,400 -1,016 Descending Indianapolis Center
Mon 03:11:18 PM 38.3094 -80.6836 91° East 513 590 33,500 -677 Descending Indianapolis Center
Mon 03:12:20 PM 38.3244 -80.5106 84° East 493 567 33,000 -281 Descending Indianapolis Center
Mon 03:13:26 PM 38.3614 -80.3239 76° East 487 560 32,900 -857 Descending Washington Center
Mon 03:14:26 PM 38.3933 -80.1508 77° East 487 560 31,200 -2,000 Descending Washington Center
Mon 03:15:26 PM 38.4267 -79.9781 76° East 487 560 28,900 -2,100 Descending Washington Center
Mon 03:16:26 PM 38.4600 -79.8050 76° East 492 566 27,000 -1,900 Descending Washington Center
Mon 03:17:26 PM 38.4911 -79.6289 77° East 503 579 25,100 -1,500 Descending Washington Center
Mon 03:18:26 PM 38.5192 -79.4767 77° East 498 573 24,000 -545 Descending Washington Center
Mon 03:19:27 PM 38.5450 -79.3186 78° East 479 551 24,000 -744 Level Washington Center
Mon 03:20:27 PM 38.5642 -79.1656 81° East 448 516 22,500 -1,613 Descending Washington Center
Mon 03:21:26 PM 38.5914 -79.0183 77° East 432 497 20,800 -1,765 Descending Washington Center
Mon 03:22:26 PM 38.6142 -78.8758 78° East 421 484 19,000 -1,950 Descending Washington Center
Mon 03:23:26 PM 38.6428 -78.7442 74° East 403 464 16,900 -2,350 Descending Washington Center
Mon 03:24:26 PM 38.6731 -78.6153 73° East 383 441 14,300 -2,479 Descending Washington Center
Mon 03:25:27 PM 38.7033 -78.4914 73° East 370 426 11,900 -1,650 Descending Washington Center
Mon 03:26:26 PM 38.7331 -78.3808 71° East 350 403 11,000 -908 Descending Washington Center
Mon 03:27:26 PM 38.8047 -78.3436 22° Northeast 270 311 10,100 -1,100 Descending Washington Center
Mon 03:28:26 PM 38.8583 -78.2789 43° Northeast 265 305 8,800 -1,500 Descending Washington Center
Mon 03:29:26 PM 38.8958 -78.1869 62° Northeast 271 312 7,100 -1,550 Descending Washington Center
Mon 03:30:26 PM 38.9311 -78.0975 63° Northeast 276 318 5,700 -1,289 Descending Washington Center
Mon 03:31:27 PM 38.9475 -78.0097 76° East 269 310 4,500 -850 Descending Washington Center
Mon 03:32:26 PM 38.9533 -77.9192 85° East 256 295 4,000 -252 Descending Washington Center
Mon 03:33:26 PM 38.9611 -77.8394 83° East 219 252 4,000 -300 Level Washington Center
Mon 03:34:26 PM 38.9667 -77.7756 84° East 189 217 3,400 -523 Descending Washington Center
Mon 03:36:18 PM 38.9833 -77.6500 80° East 188 216 2,500 -488 Descending Potomac TRACON
Mon 03:37:18 PM 38.9667 -77.5833 108° East 175 201 2,000 -600 Descending Potomac TRACON
Mon 03:38:18 PM 38.9500 -77.5333 113° Southeast 129 148 1,300 -694 Descending Potomac TRACON
Mon 03:39:19 PM 38.9500 -77.5000 90° East 117 135 600 -689 Descending Potomac TRACON
Mon 03:41:00 PM 38.9474 -77.4599 159° South  Level Estimated
Mon 03:48:00 PM 38.9474 -77.4599 159° South  Level Estimated
Mon 03:49:00 PM 38.9474 -77.4599 159° South  Level Estimated
Mon 03:50:00 PM 38.9474 -77.4599 159° South  Level Estimated
Mon 03:51:00 PM 38.9474 -77.4599 159° South  Level Estimated

Login

Don't have an account? Register now (free) for customized features, flight alerts, and more!